Visit the IPS Meteostar Home Page IPSM China Lake Naval Air Facility FORECAST

China Lake, California

45

76

80

81

79

79

74

74

44
44
51
53
52
52
51
51

3 miles away at China Lake Naval Air Facility 5:56 GMT

Weather:

 Mostly Cloudy 

Wind:

N 3 mph

Temperature:

45 ° F

Pressure:

30.19

Dew Point:

7 ° F

Relative Humidity:

18

Feels Like:

45 ° F

Visibility:

10 miles


Aviation Observations:

KNID 210556Z VRB03KT 10SM BKN300 07/M14 A3016 RMK AO2 SLP216 T00721139 10189 20072 51011 $ =

National Weather Service Forecast:
Indian Wells Valley

indian wells valley-
1000 PM PST MON NOV 20 2017

TONIGHT

Partly cloudy. Lows 39 to 49. Light winds.

TUESDAY

Sunny. Highs 73 to 79. Light winds.

TUESDAY NIGHT

Mostly clear. Lows 46 to 56. Light winds.

WEDNESDAY

Sunny. Highs 76 to 84. North winds up to 10 mph in the morning shifting to the east in the afternoon.

WEDNESDAY NIGHT

Partly cloudy. Lows 48 to 58. Light winds.

THANKSGIVING DAY

Mostly sunny. Highs 78 to 84.

THURSDAY NIGHT THROUGH SATURDAY

Mostly clear. Lows 47 to 57. highs 74 to 84.

SATURDAY NIGHT THROUGH MONDAY

Partly cloudy. Breezy. Lows 46 to 56. Highs 69 to 79.
temperature / precipitation
inyokern 39 77 48 82 / 0 0 0 0
ridgecrest 40 77 45 82 / 0 0 0 0


Visit the IPS Meteostar Home Page